createdAt,value
2018-10-19T00:00:10.913Z,94.90
2018-10-19T00:01:45.720Z,94.90
2018-10-19T00:03:20.558Z,94.90
2018-10-19T00:04:55.415Z,94.90
2018-10-19T00:06:30.184Z,94.90
2018-10-19T00:08:05.537Z,95.00
2018-10-19T00:09:40.403Z,95.00
2018-10-19T00:11:15.406Z,95.00
2018-10-19T00:12:50.096Z,95.00
2018-10-19T00:14:24.935Z,95.10
2018-10-19T00:15:59.783Z,95.10
2018-10-19T00:17:34.603Z,95.10
2018-10-19T00:19:09.792Z,95.20
2018-10-19T00:20:44.982Z,95.20
2018-10-19T00:22:19.795Z,95.20
2018-10-19T00:23:54.661Z,95.10
2018-10-19T00:25:29.568Z,95.10
2018-10-19T00:27:04.572Z,95.20
2018-10-19T00:28:39.404Z,95.20
2018-10-19T00:30:15.252Z,95.10
2018-10-19T00:31:50.238Z,95.10
2018-10-19T00:33:25.064Z,95.10
2018-10-19T00:34:59.905Z,95.10
2018-10-19T00:36:34.803Z,95.10
2018-10-19T00:38:09.639Z,95.10
2018-10-19T00:39:44.493Z,95.10
2018-10-19T00:41:19.372Z,95.10
2018-10-19T00:42:54.316Z,95.10
2018-10-19T00:44:29.140Z,95.20
2018-10-19T00:46:03.994Z,95.20
2018-10-19T00:47:38.882Z,95.20
2018-10-19T00:49:13.762Z,95.20
2018-10-19T00:50:48.714Z,95.10
2018-10-19T00:52:23.729Z,95.10
2018-10-19T00:53:58.584Z,95.10
2018-10-19T00:55:33.449Z,95.10
2018-10-19T00:57:08.345Z,95.20
2018-10-19T00:58:43.152Z,95.20
2018-10-19T01:00:18.023Z,95.10
2018-10-19T01:01:52.810Z,95.20
2018-10-19T01:03:27.608Z,95.20
2018-10-19T01:05:02.633Z,95.30
2018-10-19T01:06:37.423Z,95.30
2018-10-19T01:08:12.231Z,95.30
2018-10-19T01:09:47.075Z,95.30
2018-10-19T01:11:21.937Z,95.30
2018-10-19T01:12:57.974Z,95.40
2018-10-19T01:14:32.776Z,95.40
2018-10-19T01:16:07.740Z,95.40
2018-10-19T01:17:42.578Z,95.40
2018-10-19T01:19:17.359Z,95.40
2018-10-19T01:20:52.207Z,95.40
2018-10-19T01:22:27.039Z,95.40
2018-10-19T01:24:02.007Z,95.40
2018-10-19T01:25:40.480Z,95.40
2018-10-19T01:27:15.468Z,95.40
2018-10-19T01:28:50.252Z,95.40
2018-10-19T01:30:25.126Z,95.30
2018-10-19T01:32:00.079Z,95.30
2018-10-19T01:33:34.906Z,95.30
2018-10-19T01:35:11.596Z,95.40
2018-10-19T01:36:46.568Z,95.60
2018-10-19T01:38:21.436Z,95.40
2018-10-19T01:39:56.260Z,95.40
2018-10-19T01:41:31.062Z,95.20
2018-10-19T01:43:05.874Z,95.40
2018-10-19T01:44:40.691Z,95.40
2018-10-19T01:46:15.545Z,95.40
2018-10-19T01:47:50.417Z,95.40
2018-10-19T01:49:25.245Z,95.40
2018-10-19T01:51:00.142Z,95.40
2018-10-19T01:52:34.917Z,95.40
2018-10-19T01:54:09.843Z,95.40
2018-10-19T01:55:44.748Z,95.40
2018-10-19T01:57:19.943Z,95.40
2018-10-19T01:58:54.811Z,95.50
2018-10-19T02:00:29.602Z,95.60
2018-10-19T02:02:04.841Z,95.90
2018-10-19T02:03:39.655Z,96.20
2018-10-19T02:05:14.684Z,96.20
2018-10-19T02:06:49.609Z,96.20
2018-10-19T02:08:24.411Z,96.10
2018-10-19T02:09:59.198Z,96.00
2018-10-19T02:11:34.030Z,95.90
2018-10-19T02:13:09.636Z,95.80
2018-10-19T02:14:44.460Z,95.80
2018-10-19T02:16:19.284Z,95.70
2018-10-19T02:17:54.127Z,95.70
2018-10-19T02:19:29.131Z,95.70
2018-10-19T02:21:04.056Z,95.70
2018-10-19T02:22:39.488Z,95.70
2018-10-19T02:24:14.318Z,95.70
2018-10-19T02:25:49.226Z,95.70
2018-10-19T02:27:24.022Z,95.80
2018-10-19T02:28:58.896Z,95.80
2018-10-19T02:30:33.664Z,95.90
2018-10-19T02:32:08.495Z,95.90
2018-10-19T02:33:43.323Z,96.10
2018-10-19T02:35:18.215Z,96.50
2018-10-19T02:36:53.096Z,96.00
2018-10-19T02:38:28.096Z,95.90
2018-10-19T02:40:03.141Z,95.90
2018-10-19T02:41:38.023Z,95.80
2018-10-19T02:43:13.637Z,95.80
2018-10-19T02:44:48.495Z,95.80
2018-10-19T02:46:23.437Z,95.70
2018-10-19T02:47:58.272Z,95.70
2018-10-19T02:49:33.117Z,95.70
2018-10-19T02:51:08.140Z,95.80
2018-10-19T02:52:43.000Z,95.90
2018-10-19T02:54:17.797Z,96.00
2018-10-19T02:55:52.608Z,96.00
2018-10-19T02:57:27.485Z,96.00
2018-10-19T02:59:02.329Z,96.00
2018-10-19T03:00:37.211Z,96.00
2018-10-19T03:02:12.031Z,95.90
2018-10-19T03:03:46.893Z,96.00
2018-10-19T03:05:21.771Z,96.00
2018-10-19T03:06:57.253Z,96.00
2018-10-19T03:08:32.017Z,96.00
2018-10-19T03:10:07.277Z,96.00
2018-10-19T03:11:42.144Z,96.00
2018-10-19T03:13:16.871Z,96.00
2018-10-19T03:14:51.750Z,95.90
2018-10-19T03:16:26.811Z,96.00
2018-10-19T03:18:01.671Z,96.00
2018-10-19T03:19:36.559Z,96.00
2018-10-19T03:21:11.523Z,96.00
2018-10-19T03:22:46.351Z,96.10
2018-10-19T03:24:21.175Z,96.00
2018-10-19T03:25:56.027Z,96.00
2018-10-19T03:27:30.919Z,96.00
2018-10-19T03:29:05.903Z,96.00
2018-10-19T03:30:40.817Z,96.00
2018-10-19T03:32:15.686Z,96.00
2018-10-19T03:33:50.552Z,96.10
2018-10-19T03:35:25.509Z,96.10
2018-10-19T03:37:00.422Z,96.20
2018-10-19T03:38:35.230Z,96.10
2018-10-19T03:40:10.053Z,96.30
2018-10-19T03:41:44.909Z,96.10
2018-10-19T03:43:19.785Z,96.00
2018-10-19T03:44:54.594Z,96.00
2018-10-19T03:46:29.306Z,96.00
2018-10-19T03:48:04.879Z,96.00
2018-10-19T03:49:39.686Z,96.00
2018-10-19T03:51:14.621Z,96.00
2018-10-19T03:52:49.672Z,96.00
2018-10-19T03:54:24.481Z,96.00
2018-10-19T03:55:59.369Z,96.00
2018-10-19T03:57:34.383Z,96.10
2018-10-19T03:59:09.208Z,96.10
2018-10-19T04:00:43.996Z,96.10
2018-10-19T04:02:18.850Z,96.10
2018-10-19T04:03:53.630Z,96.10
2018-10-19T04:05:28.480Z,96.20
2018-10-19T04:07:03.337Z,96.20
2018-10-19T04:08:38.133Z,96.20
2018-10-19T04:10:12.932Z,96.30
2018-10-19T04:11:47.895Z,96.30
2018-10-19T04:13:22.731Z,96.30
2018-10-19T04:14:57.586Z,96.30
2018-10-19T04:16:32.340Z,96.40
2018-10-19T04:18:07.202Z,96.30
2018-10-19T04:19:41.983Z,96.30
2018-10-19T04:21:16.832Z,96.30
2018-10-19T04:22:55.939Z,96.30
2018-10-19T04:24:30.725Z,96.30
2018-10-19T04:26:05.933Z,96.20
2018-10-19T04:27:40.943Z,96.20
2018-10-19T04:29:15.854Z,96.10
2018-10-19T04:30:50.615Z,96.00
2018-10-19T04:32:25.471Z,96.00
2018-10-19T04:34:00.282Z,96.00
2018-10-19T04:35:35.129Z,96.50
2018-10-19T04:37:09.940Z,96.20
2018-10-19T04:38:44.782Z,96.10
2018-10-19T04:40:21.379Z,96.10
2018-10-19T04:41:56.339Z,96.00
2018-10-19T04:43:31.055Z,96.10
2018-10-19T04:45:06.537Z,96.00
2018-10-19T04:46:41.291Z,96.10
2018-10-19T04:48:16.208Z,96.00
2018-10-19T04:49:50.989Z,96.00
2018-10-19T04:51:25.805Z,96.00
2018-10-19T04:53:00.663Z,95.90
2018-10-19T04:54:35.548Z,95.90
2018-10-19T04:56:10.385Z,95.90
2018-10-19T04:57:45.903Z,95.90
2018-10-19T04:59:20.707Z,96.00
2018-10-19T05:00:55.603Z,96.00
2018-10-19T05:02:30.474Z,96.00
2018-10-19T05:04:05.913Z,96.10
2018-10-19T05:05:40.749Z,96.20
2018-10-19T05:07:15.549Z,96.20
2018-10-19T05:08:50.371Z,96.20
2018-10-19T05:10:25.160Z,96.20
2018-10-19T05:11:59.975Z,96.20
2018-10-19T05:13:34.895Z,96.10
2018-10-19T05:15:10.844Z,96.10
2018-10-19T05:16:45.792Z,96.10
2018-10-19T05:18:20.640Z,96.20
2018-10-19T05:19:55.537Z,96.20
2018-10-19T05:21:30.310Z,96.20
2018-10-19T05:23:05.623Z,96.40
2018-10-19T05:24:40.455Z,96.50
2018-10-19T05:26:15.405Z,96.60
2018-10-19T05:27:50.211Z,96.50
2018-10-19T05:29:25.043Z,96.30
2018-10-19T05:30:59.846Z,96.30
2018-10-19T05:32:34.654Z,96.10
2018-10-19T05:34:09.498Z,95.90
2018-10-19T05:35:44.347Z,95.90
2018-10-19T05:37:19.255Z,96.00
2018-10-19T05:38:54.171Z,96.20
2018-10-19T05:40:29.042Z,96.30
2018-10-19T05:42:03.898Z,96.10
2018-10-19T05:43:38.824Z,96.10
2018-10-19T05:45:13.658Z,96.00
2018-10-19T05:46:48.448Z,96.00
2018-10-19T05:48:23.378Z,95.90
2018-10-19T05:49:58.237Z,95.90
2018-10-19T05:51:33.236Z,95.90
2018-10-19T05:53:08.236Z,95.90
2018-10-19T05:54:42.958Z,95.90
2018-10-19T05:56:18.032Z,95.90
2018-10-19T05:57:52.832Z,95.80
2018-10-19T05:59:27.687Z,95.80
2018-10-19T06:01:02.545Z,95.80
2018-10-19T06:02:37.461Z,95.70
2018-10-19T06:04:13.026Z,95.70
2018-10-19T06:05:47.930Z,95.70
2018-10-19T06:07:22.773Z,95.60
2018-10-19T06:08:57.687Z,95.60
2018-10-19T06:10:32.553Z,95.50
2018-10-19T06:12:07.684Z,95.50
2018-10-19T06:13:42.632Z,95.50
2018-10-19T06:15:17.480Z,95.40
2018-10-19T06:16:52.419Z,95.40
2018-10-19T06:18:27.204Z,95.40
2018-10-19T06:20:02.099Z,95.50
2018-10-19T06:21:36.942Z,95.80
2018-10-19T06:23:11.816Z,95.50
2018-10-19T06:24:46.723Z,95.40
2018-10-19T06:26:21.815Z,95.80
2018-10-19T06:27:56.679Z,95.30
2018-10-19T06:29:31.600Z,95.20
2018-10-19T06:31:06.438Z,95.50
2018-10-19T06:32:41.306Z,95.10
2018-10-19T06:34:16.157Z,95.00
2018-10-19T06:35:51.158Z,94.90
2018-10-19T06:37:26.016Z,94.90
2018-10-19T06:39:01.161Z,94.80
2018-10-19T06:40:36.017Z,94.50
2018-10-19T06:42:10.841Z,94.60
2018-10-19T06:43:45.785Z,94.70
2018-10-19T06:45:20.589Z,94.80
2018-10-19T06:46:55.535Z,94.40
2018-10-19T06:48:30.456Z,94.30
2018-10-19T06:50:07.492Z,94.30
2018-10-19T06:51:42.444Z,94.30
2018-10-19T06:53:17.355Z,94.40
2018-10-19T06:54:52.189Z,93.90
2018-10-19T06:56:27.133Z,93.90
2018-10-19T06:58:02.030Z,93.80
2018-10-19T06:59:36.892Z,94.10
2018-10-19T07:01:11.688Z,94.20
2018-10-19T07:02:51.687Z,93.80
2018-10-19T07:04:26.611Z,93.60
2018-10-19T07:06:01.489Z,93.60
2018-10-19T07:07:36.574Z,93.40
2018-10-19T07:09:11.508Z,93.50
2018-10-19T07:10:46.330Z,93.50
2018-10-19T07:12:21.219Z,93.40
2018-10-19T07:13:56.076Z,93.50
2018-10-19T07:15:30.959Z,93.60
2018-10-19T07:17:05.939Z,93.40
2018-10-19T07:18:40.711Z,93.30
2018-10-19T07:20:15.602Z,93.10
2018-10-19T07:21:50.369Z,93.20
2018-10-19T07:23:25.336Z,93.30
2018-10-19T07:25:00.376Z,93.30
2018-10-19T07:26:35.218Z,93.10
2018-10-19T07:28:10.099Z,92.70
2018-10-19T07:29:45.026Z,92.90
2018-10-19T07:31:19.924Z,92.90
2018-10-19T07:32:54.844Z,92.60
2018-10-19T07:34:29.735Z,92.70
2018-10-19T07:36:04.768Z,92.80
2018-10-19T07:37:39.586Z,92.50
2018-10-19T07:39:14.395Z,92.60
2018-10-19T07:40:49.316Z,92.60
2018-10-19T07:42:24.554Z,92.70
2018-10-19T07:43:59.313Z,92.40
2018-10-19T07:45:34.188Z,92.30
2018-10-19T07:47:09.101Z,92.40
2018-10-19T07:48:43.859Z,92.40
2018-10-19T07:50:18.743Z,92.40
2018-10-19T07:51:53.561Z,91.90
2018-10-19T07:53:28.391Z,91.60
2018-10-19T07:55:03.272Z,91.70
2018-10-19T07:56:38.071Z,91.50
2018-10-19T07:58:12.921Z,91.80
2018-10-19T07:59:47.809Z,91.20
2018-10-19T08:01:22.617Z,92.10
2018-10-19T08:02:57.392Z,91.90
2018-10-19T08:04:32.294Z,91.80
2018-10-19T08:06:07.146Z,92.00
2018-10-19T08:07:41.961Z,91.60
2018-10-19T08:09:16.764Z,91.40
2018-10-19T08:10:51.594Z,91.60
2018-10-19T08:12:26.397Z,91.50
2018-10-19T08:14:01.251Z,90.70
2018-10-19T08:15:36.043Z,90.90
2018-10-19T08:17:10.940Z,90.60
2018-10-19T08:18:45.732Z,91.40
2018-10-19T08:20:20.695Z,90.80
2018-10-19T08:21:55.554Z,90.90
2018-10-19T08:23:30.372Z,90.70
2018-10-19T08:25:08.643Z,90.80
2018-10-19T08:26:43.487Z,90.40
2018-10-19T08:28:18.322Z,90.90
2018-10-19T08:29:53.202Z,91.10
2018-10-19T08:31:28.073Z,91.00
2018-10-19T08:33:03.166Z,90.80
2018-10-19T08:34:38.129Z,91.10
2018-10-19T08:36:12.933Z,91.10
2018-10-19T08:37:47.727Z,91.20
2018-10-19T08:39:22.699Z,90.70
2018-10-19T08:40:57.579Z,90.40
2018-10-19T08:42:32.449Z,90.70
2018-10-19T08:44:07.250Z,90.40
2018-10-19T08:45:42.096Z,90.40
2018-10-19T08:47:16.947Z,90.00
2018-10-19T08:48:51.748Z,90.30
2018-10-19T08:50:26.641Z,90.20
2018-10-19T08:52:02.183Z,90.00
2018-10-19T08:53:37.234Z,89.50
2018-10-19T08:55:12.127Z,89.10
2018-10-19T08:56:46.928Z,89.50
2018-10-19T08:58:22.014Z,90.00
2018-10-19T08:59:56.866Z,90.40
2018-10-19T09:01:31.730Z,88.90
2018-10-19T09:03:06.603Z,88.70
2018-10-19T09:04:41.430Z,88.40
2018-10-19T09:06:16.354Z,89.00
2018-10-19T09:07:51.298Z,88.40
2018-10-19T09:09:26.127Z,89.00
2018-10-19T09:11:01.104Z,88.10
2018-10-19T09:12:36.017Z,88.50
2018-10-19T09:14:52.469Z,89.10
2018-10-19T09:16:27.372Z,88.70
2018-10-19T09:18:02.326Z,87.60
2018-10-19T09:19:37.135Z,88.20
2018-10-19T09:21:12.078Z,87.80
2018-10-19T09:22:46.853Z,88.30
2018-10-19T09:24:21.667Z,87.90
2018-10-19T09:25:56.540Z,88.40
2018-10-19T09:27:31.352Z,87.80
2018-10-19T09:29:06.176Z,89.10
2018-10-19T09:30:41.014Z,87.50
2018-10-19T09:32:16.296Z,86.80
2018-10-19T09:33:51.217Z,86.80
2018-10-19T09:35:26.067Z,88.40
2018-10-19T09:37:01.079Z,86.90
2018-10-19T09:38:35.855Z,86.70
2018-10-19T09:40:10.739Z,86.20
2018-10-19T09:41:45.602Z,87.50
2018-10-19T09:43:21.084Z,86.30
2018-10-19T09:44:56.024Z,85.80
2018-10-19T09:46:30.842Z,85.80
2018-10-19T09:48:05.695Z,85.90
2018-10-19T09:49:40.518Z,86.20
2018-10-19T09:51:15.408Z,85.90
2018-10-19T09:52:50.228Z,86.60
2018-10-19T09:54:25.081Z,86.60
2018-10-19T09:55:59.957Z,85.70
2018-10-19T09:57:34.736Z,86.70
2018-10-19T09:59:09.653Z,86.00
2018-10-19T10:00:49.663Z,85.70
2018-10-19T10:02:24.502Z,85.10
2018-10-19T10:03:59.428Z,85.40
2018-10-19T10:05:34.238Z,84.90
2018-10-19T10:07:09.131Z,86.10
2018-10-19T10:08:43.902Z,84.60
2018-10-19T10:10:18.787Z,85.70
2018-10-19T10:11:53.691Z,83.10
2018-10-19T10:13:28.511Z,84.30
2018-10-19T10:15:03.468Z,84.30
2018-10-19T10:16:38.323Z,84.10
2018-10-19T10:18:13.234Z,83.70
2018-10-19T10:19:48.130Z,82.80
2018-10-19T10:21:22.985Z,81.90
2018-10-19T10:22:57.801Z,82.60
2018-10-19T10:24:32.658Z,81.90
2018-10-19T10:26:07.561Z,83.20
2018-10-19T10:27:42.369Z,81.40
2018-10-19T10:29:17.377Z,81.50
2018-10-19T10:30:52.201Z,80.20
2018-10-19T10:32:27.382Z,82.00
2018-10-19T10:34:02.613Z,80.60
2018-10-19T10:35:37.438Z,81.60
2018-10-19T10:37:12.473Z,80.90
2018-10-19T10:38:47.329Z,79.70
2018-10-19T10:40:22.106Z,79.80
2018-10-19T10:41:56.995Z,80.70
2018-10-19T10:43:31.953Z,80.20
2018-10-19T10:45:07.112Z,80.90
2018-10-19T10:46:41.974Z,80.00
2018-10-19T10:48:16.812Z,80.90
2018-10-19T10:49:51.746Z,81.00
2018-10-19T10:51:26.802Z,80.40
2018-10-19T10:53:01.723Z,81.10
2018-10-19T10:54:36.586Z,81.70
2018-10-19T10:56:11.409Z,81.30
2018-10-19T10:57:46.258Z,81.50
2018-10-19T10:59:21.096Z,82.00
2018-10-19T11:00:55.951Z,82.10
2018-10-19T11:02:30.830Z,82.20
2018-10-19T11:04:05.704Z,82.50
2018-10-19T11:05:40.489Z,82.50
2018-10-19T11:07:15.481Z,82.40
2018-10-19T11:08:50.262Z,81.90
2018-10-19T11:10:25.482Z,81.70
2018-10-19T11:12:00.515Z,81.50
2018-10-19T11:13:35.626Z,81.80
2018-10-19T11:15:10.584Z,81.60
2018-10-19T11:16:45.468Z,81.70
2018-10-19T11:18:20.492Z,81.60
2018-10-19T11:19:55.352Z,80.60
2018-10-19T11:21:30.243Z,81.30
2018-10-19T11:23:05.451Z,80.80
2018-10-19T11:24:40.279Z,81.00
2018-10-19T11:26:15.086Z,80.20
2018-10-19T11:27:50.004Z,80.10
2018-10-19T11:29:24.815Z,80.60
2018-10-19T11:30:59.796Z,80.50
2018-10-19T11:32:34.657Z,80.10
2018-10-19T11:34:09.557Z,79.50
2018-10-19T11:35:44.383Z,79.50
2018-10-19T11:37:19.493Z,79.80
2018-10-19T11:38:54.437Z,79.80
2018-10-19T11:40:33.949Z,79.70
2018-10-19T11:42:09.025Z,79.70
2018-10-19T11:43:43.987Z,78.80
2018-10-19T11:45:18.895Z,79.60
2018-10-19T11:46:53.759Z,79.70
2018-10-19T11:48:28.623Z,79.30
2018-10-19T11:50:03.503Z,79.40
2018-10-19T11:51:38.313Z,79.50
2018-10-19T11:53:13.168Z,79.10
2018-10-19T11:54:48.020Z,79.10
2018-10-19T11:56:23.046Z,79.20
2018-10-19T11:57:58.155Z,79.40
2018-10-19T11:59:33.125Z,78.90
2018-10-19T12:01:07.992Z,78.40
2018-10-19T12:02:43.472Z,78.40
2018-10-19T12:04:18.332Z,78.10
2018-10-19T12:05:53.174Z,78.00
2018-10-19T12:07:28.013Z,77.60
2018-10-19T12:09:02.800Z,77.80
2018-10-19T12:10:37.901Z,78.10
2018-10-19T12:12:12.707Z,76.60
2018-10-19T12:13:47.609Z,77.00
2018-10-19T12:15:22.427Z,77.00
2018-10-19T12:16:57.472Z,76.80
2018-10-19T12:18:32.264Z,77.20
2018-10-19T12:20:08.787Z,76.80
2018-10-19T12:21:43.650Z,76.40
2018-10-19T12:23:18.668Z,75.90
2018-10-19T12:24:53.595Z,76.00
2018-10-19T12:26:28.507Z,76.10
2018-10-19T12:28:03.370Z,75.00
2018-10-19T12:29:38.210Z,74.70
2018-10-19T12:31:13.146Z,75.00
2018-10-19T12:32:48.046Z,74.70
2018-10-19T12:34:23.017Z,74.70
2018-10-19T12:35:57.878Z,74.60
2018-10-19T12:37:32.687Z,74.60
2018-10-19T12:39:09.062Z,73.90
2018-10-19T12:40:44.089Z,74.40
2018-10-19T12:42:19.005Z,74.00
2018-10-19T12:43:53.953Z,73.60
2018-10-19T12:46:52.322Z,73.70
2018-10-19T12:48:27.191Z,73.60
2018-10-19T12:50:02.060Z,73.00
2018-10-19T12:51:37.161Z,73.40
2018-10-19T12:53:12.017Z,73.40
2018-10-19T12:54:46.947Z,72.30
2018-10-19T12:56:22.336Z,72.20
2018-10-19T12:57:57.224Z,71.80
2018-10-19T12:59:32.104Z,72.10
2018-10-19T13:01:07.238Z,72.00
2018-10-19T13:02:42.028Z,71.50
2018-10-19T13:04:16.861Z,71.20
2018-10-19T13:05:51.717Z,72.30
2018-10-19T13:07:26.629Z,71.70
2018-10-19T13:09:01.555Z,72.40
2018-10-19T13:10:36.376Z,71.10
2018-10-19T13:12:11.182Z,70.40
2018-10-19T13:13:46.017Z,71.10
2018-10-19T13:15:20.887Z,70.30
2018-10-19T13:16:55.797Z,70.20
2018-10-19T13:18:32.596Z,70.80
2018-10-19T13:20:08.870Z,70.40
2018-10-19T13:21:44.214Z,69.80
2018-10-19T13:23:19.222Z,70.10
2018-10-19T13:24:54.115Z,69.80
2018-10-19T13:26:29.033Z,69.00
2018-10-19T13:28:03.861Z,68.70
2018-10-19T13:29:38.731Z,69.00
2018-10-19T13:31:13.590Z,69.10
2018-10-19T13:32:48.442Z,69.50
2018-10-19T13:34:23.593Z,69.20
2018-10-19T13:35:58.454Z,68.20
2018-10-19T13:37:33.250Z,68.20
2018-10-19T13:39:09.548Z,68.00
2018-10-19T13:40:44.392Z,67.90
2018-10-19T13:42:19.255Z,68.00
2018-10-19T13:43:54.151Z,68.10
2018-10-19T13:45:29.045Z,68.40
2018-10-19T13:47:03.932Z,67.50
2018-10-19T13:48:38.704Z,67.70
2018-10-19T13:50:13.584Z,67.70
2018-10-19T13:51:48.411Z,67.40
2018-10-19T13:53:23.311Z,68.20
2018-10-19T13:54:58.170Z,67.70
2018-10-19T13:56:33.396Z,67.80
2018-10-19T13:58:08.232Z,67.60
2018-10-19T13:59:43.132Z,66.30
2018-10-19T14:01:17.971Z,66.30
2018-10-19T14:02:53.047Z,65.30
2018-10-19T14:04:27.958Z,65.70
2018-10-19T14:06:02.818Z,65.50
2018-10-19T14:07:38.014Z,66.50
2018-10-19T14:09:12.893Z,65.50
2018-10-19T14:10:48.409Z,65.60
2018-10-19T14:12:23.265Z,64.60
2018-10-19T14:13:58.335Z,63.70
2018-10-19T14:15:33.158Z,64.10
2018-10-19T14:17:08.070Z,63.70
2018-10-19T14:18:42.955Z,64.00
2018-10-19T14:20:17.840Z,64.20
2018-10-19T14:21:52.779Z,64.40
2018-10-19T14:23:27.616Z,64.70
2018-10-19T14:25:02.807Z,64.80
2018-10-19T14:26:37.700Z,65.00
2018-10-19T14:28:12.504Z,65.10
2018-10-19T14:29:47.448Z,65.50
2018-10-19T14:31:22.382Z,65.70
2018-10-19T14:32:57.393Z,66.10
2018-10-19T14:34:32.328Z,66.20
2018-10-19T14:36:07.259Z,66.40
2018-10-19T14:37:43.445Z,66.50
2018-10-19T14:39:18.266Z,66.90
2018-10-19T14:40:53.061Z,67.00
2018-10-19T14:42:27.968Z,67.10
2018-10-19T14:44:02.763Z,67.20
2018-10-19T14:45:37.760Z,67.10
2018-10-19T14:47:12.634Z,67.40
2018-10-19T14:48:47.427Z,67.70
2018-10-19T14:50:22.347Z,67.90
2018-10-19T14:51:57.215Z,67.60
2018-10-19T14:53:32.089Z,67.50
2018-10-19T14:55:09.158Z,67.60
2018-10-19T14:56:44.814Z,67.50
2018-10-19T14:58:19.614Z,67.80
2018-10-19T14:59:54.684Z,67.80
2018-10-19T15:01:29.523Z,68.00
2018-10-19T15:03:04.438Z,68.10
2018-10-19T15:04:39.257Z,67.90
2018-10-19T15:06:14.109Z,67.90
2018-10-19T15:07:49.074Z,67.90
2018-10-19T15:09:24.140Z,68.10
2018-10-19T15:10:59.086Z,67.80
2018-10-19T15:12:33.809Z,67.70
2018-10-19T15:14:08.663Z,67.60
2018-10-19T15:15:43.537Z,67.70
2018-10-19T15:17:18.379Z,67.90
2018-10-19T15:18:53.218Z,67.80
2018-10-19T15:20:28.124Z,68.00
2018-10-19T15:22:03.038Z,68.00
2018-10-19T15:23:37.847Z,68.50
2018-10-19T15:25:12.947Z,68.30
2018-10-19T15:26:47.994Z,68.50
2018-10-19T15:28:22.892Z,68.60
2018-10-19T15:29:57.920Z,68.70
2018-10-19T15:31:32.731Z,68.80
2018-10-19T15:33:07.683Z,68.80
2018-10-19T15:34:42.539Z,69.40
2018-10-19T15:36:17.463Z,69.50
2018-10-19T15:37:52.404Z,69.80
2018-10-19T15:39:27.221Z,70.20
2018-10-19T15:41:02.088Z,70.20
2018-10-19T15:42:36.911Z,70.40
2018-10-19T15:44:12.112Z,71.10
2018-10-19T15:45:53.612Z,70.90
2018-10-19T15:47:30.656Z,72.30
2018-10-19T15:49:05.576Z,72.00
2018-10-19T15:50:40.431Z,72.10
2018-10-19T15:52:15.333Z,72.90
2018-10-19T15:53:50.307Z,73.10
2018-10-19T15:55:25.234Z,73.60
2018-10-19T15:57:00.118Z,73.60
2018-10-19T15:58:35.204Z,74.10
2018-10-19T16:00:10.537Z,74.10
2018-10-19T16:01:45.434Z,74.90
2018-10-19T16:03:20.234Z,75.60
2018-10-19T16:04:55.096Z,75.70
2018-10-19T16:06:29.982Z,76.10
2018-10-19T16:08:04.920Z,76.20
2018-10-19T16:09:39.720Z,76.40
2018-10-19T16:11:14.572Z,76.60
2018-10-19T16:12:49.476Z,76.90
2018-10-19T16:14:24.321Z,77.60
2018-10-19T16:15:59.149Z,78.10
2018-10-19T16:17:34.087Z,79.40
2018-10-19T16:19:09.076Z,79.20
2018-10-19T16:20:43.937Z,79.70
2018-10-19T16:22:19.076Z,79.50
2018-10-19T16:23:54.036Z,79.60
2018-10-19T16:25:28.835Z,80.20
2018-10-19T16:27:03.690Z,80.30
2018-10-19T16:28:38.556Z,80.80
2018-10-19T16:30:13.585Z,80.90
2018-10-19T16:31:48.392Z,81.70
2018-10-19T16:33:23.226Z,81.50
2018-10-19T16:34:58.278Z,82.20
2018-10-19T16:36:33.187Z,82.10
2018-10-19T16:38:07.991Z,83.10
2018-10-19T16:39:43.066Z,83.60
2018-10-19T16:41:17.927Z,83.40
2018-10-19T16:42:52.826Z,84.00
2018-10-19T16:44:28.154Z,85.30
2018-10-19T16:46:03.066Z,84.40
2018-10-19T16:47:37.934Z,85.80
2018-10-19T16:49:19.459Z,85.00
2018-10-19T16:50:54.297Z,85.30
2018-10-19T16:52:29.407Z,85.60
2018-10-19T16:54:08.855Z,85.90
2018-10-19T16:55:43.611Z,86.70
2018-10-19T16:57:18.485Z,86.50
2018-10-19T16:58:53.609Z,87.70
2018-10-19T17:00:28.440Z,87.40
2018-10-19T17:02:03.308Z,87.30
2018-10-19T17:03:38.297Z,87.30
2018-10-19T17:05:13.186Z,87.20
2018-10-19T17:06:48.063Z,87.70
2018-10-19T17:08:22.964Z,87.30
2018-10-19T17:09:57.757Z,88.00
2018-10-19T17:11:32.596Z,87.60
2018-10-19T17:13:07.441Z,89.10
2018-10-19T17:14:42.261Z,88.20
2018-10-19T17:16:17.159Z,89.30
2018-10-19T17:17:52.019Z,88.70
2018-10-19T17:19:26.926Z,89.60
2018-10-19T17:21:01.863Z,89.40
2018-10-19T17:22:37.167Z,89.00
2018-10-19T17:24:12.138Z,89.40
2018-10-19T17:25:46.984Z,89.20
2018-10-19T17:27:21.846Z,89.40
2018-10-19T17:28:56.736Z,89.40
2018-10-19T17:30:31.565Z,89.70
2018-10-19T17:32:06.397Z,90.10
2018-10-19T17:33:41.380Z,90.00
2018-10-19T17:35:16.263Z,90.30
2018-10-19T17:36:51.122Z,90.60
2018-10-19T17:38:26.056Z,90.50
2018-10-19T17:40:01.083Z,90.70
2018-10-19T17:41:36.022Z,90.50
2018-10-19T17:43:10.870Z,90.60
2018-10-19T17:44:45.909Z,90.50
2018-10-19T17:46:20.803Z,90.80
2018-10-19T17:47:55.684Z,90.70
2018-10-19T17:49:30.912Z,90.90
2018-10-19T17:51:05.922Z,90.80
2018-10-19T17:52:40.838Z,91.30
2018-10-19T17:54:15.917Z,91.00
2018-10-19T17:55:50.706Z,91.30
2018-10-19T17:57:25.616Z,91.20
2018-10-19T17:59:00.511Z,91.50
2018-10-19T18:00:35.328Z,91.30
2018-10-19T18:02:10.327Z,91.30
2018-10-19T18:03:45.170Z,91.50
2018-10-19T18:05:20.054Z,91.60
2018-10-19T18:06:55.105Z,91.60
2018-10-19T18:08:30.009Z,91.40
2018-10-19T18:10:04.968Z,91.30
2018-10-19T18:11:40.294Z,91.60
2018-10-19T18:13:15.087Z,91.50
2018-10-19T18:14:49.957Z,91.50
2018-10-19T18:16:24.849Z,91.60
2018-10-19T18:17:59.750Z,92.10
2018-10-19T18:19:34.600Z,91.80
2018-10-19T18:21:09.581Z,91.70
2018-10-19T18:22:44.481Z,92.70
2018-10-19T18:24:19.287Z,92.20
2018-10-19T18:25:54.203Z,92.40
2018-10-19T18:27:30.136Z,92.30
2018-10-19T18:29:05.387Z,92.30
2018-10-19T18:30:40.303Z,92.20
2018-10-19T18:32:15.520Z,92.20
2018-10-19T18:33:50.398Z,92.20
2018-10-19T18:35:25.802Z,92.20
2018-10-19T18:37:03.568Z,92.30
2018-10-19T18:38:40.433Z,92.30
2018-10-19T18:40:15.475Z,92.40
2018-10-19T18:41:50.586Z,92.50
2018-10-19T18:43:25.561Z,92.60
2018-10-19T18:45:00.494Z,92.70
2018-10-19T18:46:35.548Z,92.40
2018-10-19T18:48:10.466Z,92.30
2018-10-19T18:49:46.772Z,92.80
2018-10-19T18:51:21.614Z,92.90
2018-10-19T18:52:56.492Z,92.60
2018-10-19T18:54:31.489Z,93.10
2018-10-19T18:56:06.474Z,93.30
2018-10-19T18:57:41.530Z,93.20
2018-10-19T18:59:16.548Z,92.90
2018-10-19T19:00:51.448Z,92.90
2018-10-19T19:02:26.304Z,92.80
2018-10-19T19:04:01.192Z,92.80
2018-10-19T19:05:36.143Z,92.90
2018-10-19T19:07:11.040Z,92.90
2018-10-19T19:08:46.007Z,93.00
2018-10-19T19:10:20.917Z,93.10
2018-10-19T19:11:55.827Z,93.10
2018-10-19T19:13:32.016Z,93.10
2018-10-19T19:15:07.491Z,93.10
2018-10-19T19:16:42.509Z,93.20
2018-10-19T19:18:17.433Z,93.10
2018-10-19T19:19:57.990Z,93.10
2018-10-19T19:21:33.272Z,93.10
2018-10-19T19:23:08.228Z,93.10
2018-10-19T19:25:46.000Z,93.10
2018-10-19T19:27:20.945Z,93.10
2018-10-19T19:28:56.213Z,93.30
2018-10-19T19:30:32.922Z,93.40
2018-10-19T19:32:08.312Z,93.80
2018-10-19T19:33:48.923Z,94.00
2018-10-19T19:35:23.791Z,93.90
2018-10-19T19:36:58.876Z,93.90
2018-10-19T19:38:34.071Z,93.70
2018-10-19T19:40:08.900Z,93.80
2018-10-19T19:41:49.007Z,93.70
2018-10-19T19:43:24.099Z,93.70
2018-10-19T19:44:58.971Z,93.50
2018-10-19T19:46:34.147Z,93.40
2018-10-19T19:48:14.522Z,93.40
2018-10-19T19:49:49.506Z,93.30
2018-10-19T19:51:24.343Z,93.40
2018-10-19T19:52:59.284Z,93.50
2018-10-19T19:54:34.109Z,93.50
2018-10-19T19:56:09.066Z,93.50
2018-10-19T19:57:44.015Z,93.50
2018-10-19T19:59:18.973Z,93.60
2018-10-19T20:00:53.972Z,93.60
2018-10-19T20:02:28.951Z,93.60
2018-10-19T20:04:04.064Z,93.90
2018-10-19T20:05:38.905Z,93.80
2018-10-19T20:07:13.842Z,94.00
2018-10-19T20:08:48.842Z,94.40
2018-10-19T20:10:23.732Z,93.90
2018-10-19T20:11:58.548Z,93.90
2018-10-19T20:13:33.598Z,94.00
2018-10-19T20:15:09.461Z,94.10
2018-10-19T20:16:44.372Z,94.00
2018-10-19T20:18:19.364Z,94.00
2018-10-19T20:19:54.391Z,94.00
2018-10-19T20:21:29.516Z,93.90
2018-10-19T20:23:04.477Z,94.00
2018-10-19T20:24:39.436Z,93.90
2018-10-19T20:26:14.651Z,94.00